Time,TemperatureF,DewpointF,PressureIn,WindDirection,WindDirectionDegrees,WindSpeedMPH,WindSpeedGustMPH,Humidity,HourlyPrecipIn,Conditions,Clouds,dailyrainin,SolarRadiationWatts/m^2,SoftwareType,DateUTC
2013-06-15 00:22:00,68.0,64.0,-100.00,NNW,330,11.0,14.0,86,0.00,,,0.03,0.000000,,2013-06-15 05:22:00,
2013-06-15 00:34:00,68.0,64.0,-100.00,NNW,330,11.0,14.0,86,0.00,,,0.03,0.000000,,2013-06-15 05:34:00,
2013-06-15 00:42:00,68.0,64.0,-100.00,NNW,330,11.0,14.0,86,0.00,,,0.03,0.000000,,2013-06-15 05:42:00,
2013-06-15 00:52:00,68.0,64.0,-100.00,NNW,330,11.0,14.0,86,0.00,,,0.03,0.000000,,2013-06-15 05:52:00,
2013-06-15 01:24:00,66.0,63.0,-100.00,NW,321,12.0,14.0,90,0.00,,,0.00,0.000000,,2013-06-15 06:24:00,
2013-06-15 01:33:00,66.0,63.0,-100.00,NW,321,12.0,14.0,90,0.00,,,0.00,0.000000,,2013-06-15 06:33:00,
2013-06-15 01:43:00,66.0,63.0,-100.00,NW,321,12.0,14.0,90,0.00,,,0.00,0.000000,,2013-06-15 06:43:00,
2013-06-15 01:53:00,66.0,63.0,-100.00,NW,321,12.0,14.0,90,0.00,,,0.00,0.000000,,2013-06-15 06:53:00,
2013-06-15 02:23:00,65.0,65.0,-100.00,NW,324,12.0,15.0,100,0.00,,,0.00,0.000000,,2013-06-15 07:23:00,
2013-06-15 02:33:00,65.0,65.0,-100.00,NW,324,12.0,15.0,100,0.00,,,0.00,0.000000,,2013-06-15 07:33:00,
2013-06-15 02:43:00,65.0,65.0,-100.00,NW,324,12.0,15.0,100,0.00,,,0.00,0.000000,,2013-06-15 07:43:00,
2013-06-15 02:53:00,65.0,65.0,-100.00,NW,324,12.0,15.0,100,0.00,,,0.00,0.000000,,2013-06-15 07:53:00,
2013-06-15 03:22:00,64.0,59.0,-100.00,NNW,343,12.0,15.0,83,0.00,,,0.00,0.000000,,2013-06-15 08:22:00,
2013-06-15 03:33:00,64.0,59.0,-100.00,NNW,343,12.0,15.0,83,0.00,,,0.00,0.000000,,2013-06-15 08:33:00,
2013-06-15 03:42:00,64.0,59.0,-100.00,NNW,343,12.0,15.0,83,0.00,,,0.00,0.000000,,2013-06-15 08:42:00,
2013-06-15 03:53:00,64.0,59.0,-100.00,NNW,343,12.0,15.0,83,0.00,,,0.00,0.000000,,2013-06-15 08:53:00,
2013-06-15 04:22:00,60.0,56.0,-100.00,NNW,332,11.0,19.0,87,0.00,,,0.00,0.000000,,2013-06-15 09:22:00,
2013-06-15 04:33:00,60.0,56.0,-100.00,NNW,332,11.0,19.0,87,0.00,,,0.00,0.000000,,2013-06-15 09:33:00,
2013-06-15 04:43:00,60.0,56.0,-100.00,NNW,332,11.0,19.0,87,0.00,,,0.00,0.000000,,2013-06-15 09:43:00,
2013-06-15 04:52:00,60.0,56.0,-100.00,NNW,332,11.0,19.0,87,0.00,,,0.00,0.000000,,2013-06-15 09:52:00,
2013-06-15 05:23:00,60.0,53.0,-100.00,NNW,347,13.0,20.0,78,0.00,,,0.00,0.000000,,2013-06-15 10:23:00,
2013-06-15 05:33:00,60.0,53.0,-100.00,NNW,347,13.0,20.0,78,0.00,,,0.00,0.000000,,2013-06-15 10:33:00,
2013-06-15 05:44:00,60.0,53.0,-100.00,NNW,347,13.0,20.0,78,0.00,,,0.00,0.000000,,2013-06-15 10:44:00,
2013-06-15 05:53:00,60.0,53.0,-100.00,NNW,347,13.0,20.0,78,0.00,,,0.00,0.000000,,2013-06-15 10:53:00,
2013-06-15 06:22:00,57.0,52.0,-100.00,NW,321,11.0,17.0,83,0.00,,,0.00,2.000000,,2013-06-15 11:22:00,
2013-06-15 06:33:00,57.0,52.0,-100.00,NW,321,11.0,17.0,83,0.00,,,0.00,2.000000,,2013-06-15 11:33:00,
2013-06-15 06:43:00,57.0,52.0,-100.00,NW,321,11.0,17.0,83,0.00,,,0.00,2.000000,,2013-06-15 11:43:00,
2013-06-15 06:53:00,57.0,52.0,-100.00,NW,321,11.0,17.0,83,0.00,,,0.00,2.000000,,2013-06-15 11:53:00,
2013-06-15 07:22:00,58.0,54.0,-100.00,NNE,17,4.0,12.0,86,0.00,,,0.00,43.000000,,2013-06-15 12:22:00,
2013-06-15 07:33:00,58.0,54.0,-100.00,NNE,17,4.0,12.0,86,0.00,,,0.00,43.000000,,2013-06-15 12:33:00,
2013-06-15 07:43:00,58.0,54.0,-100.00,NNE,17,4.0,12.0,86,0.00,,,0.00,43.000000,,2013-06-15 12:43:00,
2013-06-15 07:52:00,58.0,54.0,-100.00,NNE,17,4.0,12.0,86,0.00,,,0.00,43.000000,,2013-06-15 12:52:00,
2013-06-15 08:22:00,62.0,51.0,-100.00,North,358,8.0,12.0,68,0.00,,,0.00,144.000000,,2013-06-15 13:22:00,
2013-06-15 08:32:00,62.0,51.0,-100.00,North,358,8.0,12.0,68,0.00,,,0.00,144.000000,,2013-06-15 13:32:00,
2013-06-15 08:43:00,62.0,51.0,-100.00,North,358,8.0,12.0,68,0.00,,,0.00,144.000000,,2013-06-15 13:43:00,
2013-06-15 08:53:00,62.0,51.0,-100.00,North,358,8.0,12.0,68,0.00,,,0.00,144.000000,,2013-06-15 13:53:00,
2013-06-15 09:22:00,64.0,50.0,-100.00,NNW,342,8.0,12.0,61,0.00,,,0.00,204.000000,,2013-06-15 14:22:00,
2013-06-15 09:34:00,64.0,50.0,-100.00,NNW,342,8.0,12.0,61,0.00,,,0.00,204.000000,,2013-06-15 14:34:00,
2013-06-15 09:43:00,64.0,50.0,-100.00,NNW,342,8.0,12.0,61,0.00,,,0.00,204.000000,,2013-06-15 14:43:00,
2013-06-15 09:53:00,64.0,50.0,-100.00,NNW,342,8.0,12.0,61,0.00,,,0.00,204.000000,,2013-06-15 14:53:00,
2013-06-15 10:22:00,64.0,50.0,-100.00,NNE,12,4.0,13.0,61,0.00,,,0.00,186.000000,,2013-06-15 15:22:00,
2013-06-15 10:33:00,64.0,50.0,-100.00,NNE,12,4.0,13.0,61,0.00,,,0.00,186.000000,,2013-06-15 15:33:00,
2013-06-15 10:43:00,64.0,50.0,-100.00,NNE,12,4.0,13.0,61,0.00,,,0.00,186.000000,,2013-06-15 15:43:00,
2013-06-15 10:53:00,64.0,50.0,-100.00,NNE,12,4.0,13.0,61,0.00,,,0.00,186.000000,,2013-06-15 15:53:00,
2013-06-15 11:22:00,66.0,54.0,-100.00,NNW,327,6.0,9.0,66,0.00,,,0.00,154.000000,,2013-06-15 16:22:00,
2013-06-15 11:33:00,66.0,54.0,-100.00,NNW,327,6.0,9.0,66,0.00,,,0.00,154.000000,,2013-06-15 16:33:00,
2013-06-15 11:43:00,66.0,54.0,-100.00,NNW,327,6.0,9.0,66,0.00,,,0.00,154.000000,,2013-06-15 16:43:00,
2013-06-15 11:53:00,66.0,54.0,-100.00,NNW,327,6.0,9.0,66,0.00,,,0.00,154.000000,,2013-06-15 16:53:00,
2013-06-15 12:21:00,66.0,55.0,-100.00,WNW,301,9.0,13.0,68,0.00,,,0.00,318.000000,,2013-06-15 17:21:00,
2013-06-15 12:32:00,66.0,55.0,-100.00,WNW,301,9.0,13.0,68,0.00,,,0.00,318.000000,,2013-06-15 17:32:00,
2013-06-15 12:43:00,66.0,55.0,-100.00,WNW,301,9.0,13.0,68,0.00,,,0.00,318.000000,,2013-06-15 17:43:00,
2013-06-15 12:52:00,66.0,55.0,-100.00,WNW,301,9.0,13.0,68,0.00,,,0.00,318.000000,,2013-06-15 17:52:00,
2013-06-15 13:22:00,66.0,56.0,-100.00,WNW,285,8.0,12.0,70,0.00,,,0.00,302.000000,,2013-06-15 18:22:00,
2013-06-15 13:32:00,66.0,56.0,-100.00,WNW,285,8.0,12.0,70,0.00,,,0.00,302.000000,,2013-06-15 18:32:00,
2013-06-15 13:43:00,66.0,56.0,-100.00,WNW,285,8.0,12.0,70,0.00,,,0.00,302.000000,,2013-06-15 18:43:00,
2013-06-15 13:53:00,66.0,56.0,-100.00,WNW,285,8.0,12.0,70,0.00,,,0.00,302.000000,,2013-06-15 18:53:00,
2013-06-15 14:22:00,69.0,44.0,-100.00,WSW,252,7.0,10.0,40,0.00,,,0.00,487.000000,,2013-06-15 19:22:00,
2013-06-15 14:33:00,69.0,44.0,-100.00,WSW,252,7.0,10.0,40,0.00,,,0.00,487.000000,,2013-06-15 19:33:00,
2013-06-15 14:43:00,69.0,44.0,-100.00,WSW,252,7.0,10.0,40,0.00,,,0.00,487.000000,,2013-06-15 19:43:00,
2013-06-15 14:52:00,69.0,44.0,-100.00,WSW,252,7.0,10.0,40,0.00,,,0.00,487.000000,,2013-06-15 19:52:00,
2013-06-15 15:22:00,74.0,42.0,-100.00,West,265,10.0,15.0,32,0.00,,,0.00,1011.000000,,2013-06-15 20:22:00,
2013-06-15 15:33:00,74.0,42.0,-100.00,West,265,10.0,15.0,32,0.00,,,0.00,1011.000000,,2013-06-15 20:33:00,
2013-06-15 15:43:00,74.0,42.0,-100.00,West,265,10.0,15.0,32,0.00,,,0.00,1011.000000,,2013-06-15 20:43:00,
2013-06-15 15:52:00,74.0,42.0,-100.00,West,265,10.0,15.0,32,0.00,,,0.00,1011.000000,,2013-06-15 20:52:00,
2013-06-15 16:22:00,76.0,45.0,-100.00,WNW,285,15.0,21.0,33,0.00,,,0.00,968.000000,,2013-06-15 21:22:00,
2013-06-15 16:33:00,76.0,45.0,-100.00,WNW,285,15.0,21.0,33,0.00,,,0.00,968.000000,,2013-06-15 21:33:00,
2013-06-15 16:42:00,76.0,45.0,-100.00,WNW,285,15.0,21.0,33,0.00,,,0.00,968.000000,,2013-06-15 21:42:00,
2013-06-15 16:52:00,76.0,45.0,-100.00,WNW,285,15.0,21.0,33,0.00,,,0.00,968.000000,,2013-06-15 21:52:00,
2013-06-15 17:22:00,76.0,44.0,-100.00,West,274,17.0,26.0,32,0.00,,,0.00,793.000000,,2013-06-15 22:22:00,
2013-06-15 17:32:00,76.0,44.0,-100.00,West,274,17.0,26.0,32,0.00,,,0.00,793.000000,,2013-06-15 22:32:00,
2013-06-15 17:42:00,76.0,44.0,-100.00,West,274,17.0,26.0,32,0.00,,,0.00,793.000000,,2013-06-15 22:42:00,
2013-06-15 17:53:00,76.0,44.0,-100.00,West,274,17.0,26.0,32,0.00,,,0.00,793.000000,,2013-06-15 22:53:00,
2013-06-15 18:22:00,77.0,47.0,-100.00,WNW,283,16.0,27.0,35,0.00,,,0.00,647.000000,,2013-06-15 23:22:00,
2013-06-15 18:33:00,77.0,47.0,-100.00,WNW,283,16.0,27.0,35,0.00,,,0.00,647.000000,,2013-06-15 23:33:00,
2013-06-15 18:42:00,77.0,47.0,-100.00,WNW,283,16.0,27.0,35,0.00,,,0.00,647.000000,,2013-06-15 23:42:00,
2013-06-15 18:53:00,77.0,47.0,-100.00,WNW,283,16.0,27.0,35,0.00,,,0.00,647.000000,,2013-06-15 23:53:00,
2013-06-15 19:22:00,75.0,41.0,-100.00,West,278,16.0,24.0,30,0.00,,,0.00,455.000000,,2013-06-16 00:22:00,
2013-06-15 19:33:00,75.0,41.0,-100.00,West,278,16.0,24.0,30,0.00,,,0.00,455.000000,,2013-06-16 00:33:00,
2013-06-15 19:43:00,75.0,41.0,-100.00,West,278,16.0,24.0,30,0.00,,,0.00,455.000000,,2013-06-16 00:43:00,
2013-06-15 19:52:00,75.0,41.0,-100.00,West,278,16.0,24.0,30,0.00,,,0.00,455.000000,,2013-06-16 00:52:00,
2013-06-15 20:22:00,73.0,43.0,-100.00,WNW,283,15.0,23.0,34,0.00,,,0.00,259.000000,,2013-06-16 01:22:00,
2013-06-15 20:33:00,73.0,43.0,-100.00,WNW,283,15.0,23.0,34,0.00,,,0.00,259.000000,,2013-06-16 01:33:00,
2013-06-15 20:42:00,73.0,43.0,-100.00,WNW,283,15.0,23.0,34,0.00,,,0.00,259.000000,,2013-06-16 01:42:00,
2013-06-15 20:53:00,73.0,43.0,-100.00,WNW,283,15.0,23.0,34,0.00,,,0.00,259.000000,,2013-06-16 01:53:00,
2013-06-15 21:22:00,67.0,45.0,-100.00,West,277,12.0,19.0,45,0.00,,,0.00,82.000000,,2013-06-16 02:22:00,
2013-06-15 21:33:00,67.0,45.0,-100.00,West,277,12.0,19.0,45,0.00,,,0.00,82.000000,,2013-06-16 02:33:00,
2013-06-15 21:43:00,67.0,45.0,-100.00,West,277,12.0,19.0,45,0.00,,,0.00,82.000000,,2013-06-16 02:43:00,
2013-06-15 21:53:00,67.0,45.0,-100.00,West,277,12.0,19.0,45,0.00,,,0.00,82.000000,,2013-06-16 02:53:00,
2013-06-15 22:22:00,63.0,46.0,-100.00,West,281,8.0,15.0,53,0.00,,,0.00,4.000000,,2013-06-16 03:22:00,
2013-06-15 22:33:00,63.0,46.0,-100.00,West,281,8.0,15.0,53,0.00,,,0.00,4.000000,,2013-06-16 03:33:00,
2013-06-15 22:43:00,63.0,46.0,-100.00,West,281,8.0,15.0,53,0.00,,,0.00,4.000000,,2013-06-16 03:43:00,
2013-06-15 22:53:00,63.0,46.0,-100.00,West,281,8.0,15.0,53,0.00,,,0.00,4.000000,,2013-06-16 03:53:00,
2013-06-15 23:23:00,62.0,45.0,-100.00,West,280,8.0,12.0,54,0.00,,,0.00,0.000000,,2013-06-16 04:23:00,
2013-06-15 23:33:00,62.0,45.0,-100.00,West,280,8.0,12.0,54,0.00,,,0.00,0.000000,,2013-06-16 04:33:00,
2013-06-15 23:42:00,62.0,45.0,-100.00,West,280,8.0,12.0,54,0.00,,,0.00,0.000000,,2013-06-16 04:42:00,
2013-06-15 23:53:00,62.0,45.0,-100.00,West,280,8.0,12.0,54,0.00,,,0.00,0.000000,,2013-06-16 04:53:00,